Time;durP1;ratioP1;P1;durP2;ratioP2;P2;SDS_P1;SDS_P2;PMS_P1;PMS_P2;Temp;Humidity;BMP_temperature;BMP_pressure;BME280_temperature;BME280_humidity;BME280_pressure;Samples;Min_cycle;Max_cycle;Signal;HPM_P1;HPM_P2
2023/12/30 00:02:26;;;;;;;;;;;;;;;;;;2205091;59;2075;-22
2023/12/30 00:04:57;;;;;;;;;;;;;;;;;;2204773;67;1629;-22
2023/12/30 00:07:27;;;;;;;;;;;;;;;;;;2204957;59;2196;-22
2023/12/30 00:09:57;;;;;;;;;;;;;;;;;;2205520;67;1674;-22
2023/12/30 00:12:28;;;;;;;;;;;;;;;;;;2205951;59;2000;-22
2023/12/30 00:14:58;;;;;;;;;;;;;;;;;;2205628;59;1699;-23
2023/12/30 00:17:28;;;;;;;;;;;;;;;;;;2204662;67;1614;-22
2023/12/30 00:19:58;;;;;;;;;;;;;;;;;;2206318;67;3019;-22
2023/12/30 00:22:29;;;;;;;;;;;;;;;;;;2206136;67;1334;-22
2023/12/30 00:24:59;;;;;;;;;;;;;;;;;;2205589;67;1411;-22
2023/12/30 00:27:29;;;;;;;;;;;;;;;;;;2206450;67;1496;-22
2023/12/30 00:29:59;;;;;;;;;;;;;;;;;;2206076;59;1892;-22
2023/12/30 00:32:29;;;;;;;;;;;;;;;;;;2204149;67;2169;-22
2023/12/30 00:35:00;;;;;;;;;;;;;;;;;;2205584;59;1476;-23
2023/12/30 00:37:30;;;;;;;;;;;;;;;;;;2205998;67;1549;-22
2023/12/30 00:40:00;;;;;;;;;;;;;;;;;;2205902;59;2085;-23
2023/12/30 00:42:30;;;;;;;;;;;;;;;;;;2202203;67;1694;-22
2023/12/30 00:45:01;;;;;;;;;;;;;;;;;;2204262;67;1436;-22
2023/12/30 00:47:31;;;;;;;;;;;;;;;;;;2204066;59;1721;-22
2023/12/30 00:50:01;;;;;;;;;;;;;;;;;;2206653;67;1207;-22
2023/12/30 00:52:31;;;;;;;;;;;;;;;;;;2203977;59;1990;-22
2023/12/30 00:55:01;;;;;;;;;;;;;;;;;;2205417;59;2286;-22
2023/12/30 00:57:32;;;;;;;;;;;;;;;;;;2206312;59;1970;-22
2023/12/30 01:00:03;;;;;;;;;;;;;;;;;;2205346;59;3387;-22
2023/12/30 01:02:33;;;;;;;;;;;;;;;;;;2205379;59;2497;-22
2023/12/30 01:05:19;;;;;;;;;;;;;;;;;;2207726;59;1445;-22
2023/12/30 01:07:50;;;;;;;;;;;;;;;;;;2205830;59;1596;-22
2023/12/30 01:10:20;;;;;;;;;;;;;;;;;;2206261;59;1344;-22
2023/12/30 01:12:50;;;;;;;;;;;;;;;;;;2203135;67;1955;-22
2023/12/30 01:15:20;;;;;;;;;;;;;;;;;;2206805;59;1543;-22
2023/12/30 01:17:51;;;;;;;;;;;;;;;;;;2207489;67;1467;-22
2023/12/30 01:20:24;;;;;;;;;;;;;;;;;;2208185;59;1340;-22
2023/12/30 01:22:54;;;;;;;;;;;;;;;;;;2207233;67;1607;-22
2023/12/30 01:25:24;;;;;;;;;;;;;;;;;;2206329;67;1443;-23
2023/12/30 01:27:54;;;;;;;;;;;;;;;;;;2208021;59;1882;-23
2023/12/30 01:30:27;;;;;;;;;;;;;;;;;;2208182;59;1725;-23
2023/12/30 01:36:11;;;;;;;;;;;;;;;;;;2210976;53;3701;-18
2023/12/30 01:38:41;;;;;;;;;;;;;;;;;;2213240;58;2508;-18
2023/12/30 01:41:12;;;;;;;;;;;;;;;;;;2215423;58;1694;-18
2023/12/30 01:43:44;;;;;;;;;;;;;;;;;;2211624;58;2381;-18
2023/12/30 01:46:14;;;;;;;;;;;;;;;;;;2209860;66;1854;-18
2023/12/30 01:48:45;;;;;;;;;;;;;;;;;;2209229;59;1949;-18
2023/12/30 01:51:15;;;;;;;;;;;;;;;;;;2206821;67;1744;-18
2023/12/30 01:53:45;;;;;;;;;;;;;;;;;;2206724;59;2175;-18
2023/12/30 01:56:17;;;;;;;;;;;;;;;;;;2210433;67;1980;-18
2023/12/30 01:58:49;;;;;;;;;;;;;;;;;;2206439;67;2204;-18
2023/12/30 02:01:21;;;;;;;;;;;;;;;;;;2207839;59;2582;-18
2023/12/30 02:03:52;;;;;;;;;;;;;;;;;;2206866;59;1906;-18
2023/12/30 02:06:23;;;;;;;;;;;;;;;;;;2207258;59;2124;-18
2023/12/30 02:08:53;;;;;;;;;;;;;;;;;;2209490;67;1942;-18
2023/12/30 02:11:30;;;;;;;;;;;;;;;;;;2207132;59;1940;-18
2023/12/30 02:14:01;;;;;;;;;;;;;;;;;;2207341;59;1829;-18
2023/12/30 02:16:31;;;;;;;;;;;;;;;;;;2208983;59;1961;-17
2023/12/30 02:19:01;;;;;;;;;;;;;;;;;;2210487;67;2492;-18
2023/12/30 02:21:31;;;;;;;;;;;;;;;;;;2208372;67;2466;-18
2023/12/30 02:24:02;;;;;;;;;;;;;;;;;;2209095;59;1664;-18
2023/12/30 02:26:32;;;;;;;;;;;;;;;;;;2205431;67;2148;-18
2023/12/30 02:29:03;;;;;;;;;;;;;;;;;;2211132;59;1717;-18
2023/12/30 02:31:35;;;;;;;;;;;;;;;;;;2206494;59;2394;-18
2023/12/30 02:34:05;;;;;;;;;;;;;;;;;;2210356;59;2184;-18
2023/12/30 02:36:35;;;;;;;;;;;;;;;;;;2206419;59;1822;-17
2023/12/30 02:39:06;;;;;;;;;;;;;;;;;;2207171;67;1813;-18
2023/12/30 02:41:36;;;;;;;;;;;;;;;;;;2205722;67;2126;-18
2023/12/30 02:44:06;;;;;;;;;;;;;;;;;;2208478;59;2533;-18
2023/12/30 02:46:37;;;;;;;;;;;;;;;;;;2207115;67;1815;-18
2023/12/30 02:49:07;;;;;;;;;;;;;;;;;;2207111;67;1705;-18
2023/12/30 02:51:38;;;;;;;;;;;;;;;;;;2206289;67;1929;-18
2023/12/30 02:54:08;;;;;;;;;;;;;;;;;;2207930;59;2072;-18
2023/12/30 02:56:38;;;;;;;;;;;;;;;;;;2208026;67;1834;-18
2023/12/30 02:59:08;;;;;;;;;;;;;;;;;;2209463;67;1916;-18
2023/12/30 03:01:39;;;;;;;;;;;;;;;;;;2206721;67;2482;-18
2023/12/30 03:04:09;;;;;;;;;;;;;;;;;;2207022;59;2582;-20
2023/12/30 03:06:39;;;;;;;;;;;;;;;;;;2203037;59;2338;-20
2023/12/30 03:09:10;;;;;;;;;;;;;;;;;;2207010;59;2432;-18
2023/12/30 03:11:40;;;;;;;;;;;;;;;;;;2207268;67;2172;-18
2023/12/30 03:14:11;;;;;;;;;;;;;;;;;;2207231;59;2108;-20
2023/12/30 03:16:41;;;;;;;;;;;;;;;;;;2206200;59;2254;-20
2023/12/30 03:19:11;;;;;;;;;;;;;;;;;;2206737;59;2108;-20
2023/12/30 03:21:41;;;;;;;;;;;;;;;;;;2206443;67;1736;-20
2023/12/30 03:24:12;;;;;;;;;;;;;;;;;;2207729;59;1992;-20
2023/12/30 03:26:42;;;;;;;;;;;;;;;;;;2207904;59;2347;-20
2023/12/30 03:29:13;;;;;;;;;;;;;;;;;;2207038;59;1994;-20
2023/12/30 03:31:43;;;;;;;;;;;;;;;;;;2206923;59;2123;-20
2023/12/30 03:34:13;;;;;;;;;;;;;;;;;;2207445;59;2138;-20
2023/12/30 03:36:44;;;;;;;;;;;;;;;;;;2205846;59;1834;-20
2023/12/30 03:39:14;;;;;;;;;;;;;;;;;;2207302;67;3092;-20
2023/12/30 03:41:44;;;;;;;;;;;;;;;;;;2207236;59;2480;-20
2023/12/30 03:44:17;;;;;;;;;;;;;;;;;;2206094;59;2215;-18
2023/12/30 03:46:47;;;;;;;;;;;;;;;;;;2206579;67;2123;-18
2023/12/30 03:49:17;;;;;;;;;;;;;;;;;;2207478;67;1933;-18
2023/12/30 03:51:48;;;;;;;;;;;;;;;;;;2205849;67;2506;-20
2023/12/30 03:54:18;;;;;;;;;;;;;;;;;;2206464;67;1879;-20
2023/12/30 03:56:48;;;;;;;;;;;;;;;;;;2205308;60;2035;-18
2023/12/30 03:59:19;;;;;;;;;;;;;;;;;;2206553;59;1902;-18
2023/12/30 04:01:49;;;;;;;;;;;;;;;;;;2206417;59;2138;-18
2023/12/30 04:04:20;;;;;;;;;;;;;;;;;;2207172;67;2003;-20
2023/12/30 04:06:50;;;;;;;;;;;;;;;;;;2207174;59;2023;-20
2023/12/30 04:09:20;;;;;;;;;;;;;;;;;;2207243;67;1864;-20
2023/12/30 04:11:51;;;;;;;;;;;;;;;;;;2206519;67;1988;-20
2023/12/30 04:14:21;;;;;;;;;;;;;;;;;;2207765;59;1840;-18
2023/12/30 04:16:51;;;;;;;;;;;;;;;;;;2206337;67;1885;-20
2023/12/30 04:19:23;;;;;;;;;;;;;;;;;;2207926;59;2912;-18
2023/12/30 04:21:53;;;;;;;;;;;;;;;;;;2206891;59;2110;-18
2023/12/30 04:24:23;;;;;;;;;;;;;;;;;;2207012;59;1999;-18
2023/12/30 04:26:53;;;;;;;;;;;;;;;;;;2206621;59;1989;-18
2023/12/30 04:29:26;;;;;;;;;;;;;;;;;;2207340;59;2643;-18
2023/12/30 04:31:56;;;;;;;;;;;;;;;;;;2206626;59;2172;-25
2023/12/30 04:34:26;;;;;;;;;;;;;;;;;;2207849;59;3683;-18
2023/12/30 04:36:57;;;;;;;;;;;;;;;;;;2208254;59;1844;-18
2023/12/30 04:39:27;;;;;;;;;;;;;;;;;;2206844;59;2064;-18
2023/12/30 04:41:57;;;;;;;;;;;;;;;;;;2207207;67;2287;-20
2023/12/30 04:44:27;;;;;;;;;;;;;;;;;;2207151;67;2386;-18
2023/12/30 04:46:58;;;;;;;;;;;;;;;;;;2207202;67;2242;-18
2023/12/30 04:49:28;;;;;;;;;;;;;;;;;;2207122;64;2123;-18
2023/12/30 04:51:58;;;;;;;;;;;;;;;;;;2206414;59;2038;-18
2023/12/30 04:54:30;;;;;;;;;;;;;;;;;;2206754;67;1808;-20
2023/12/30 04:57:01;;;;;;;;;;;;;;;;;;2203296;67;1783;-18
2023/12/30 04:59:31;;;;;;;;;;;;;;;;;;2207286;59;2532;-18
2023/12/30 05:02:01;;;;;;;;;;;;;;;;;;2206852;67;2190;-20
2023/12/30 05:04:31;;;;;;;;;;;;;;;;;;2207163;67;2051;-18
2023/12/30 05:07:02;;;;;;;;;;;;;;;;;;2208106;59;1826;-18
2023/12/30 05:09:34;;;;;;;;;;;;;;;;;;2208731;59;2079;-20
2023/12/30 05:12:04;;;;;;;;;;;;;;;;;;2209570;59;1971;-20
2023/12/30 05:14:36;;;;;;;;;;;;;;;;;;2208160;59;1969;-18
2023/12/30 05:17:06;;;;;;;;;;;;;;;;;;2206567;67;1844;-18
2023/12/30 05:19:37;;;;;;;;;;;;;;;;;;2208268;67;1808;-18
2023/12/30 05:22:07;;;;;;;;;;;;;;;;;;2207765;67;2807;-18
2023/12/30 05:24:38;;;;;;;;;;;;;;;;;;2207065;67;2026;-20
2023/12/30 05:27:08;;;;;;;;;;;;;;;;;;2208022;67;2234;-19
2023/12/30 05:29:39;;;;;;;;;;;;;;;;;;2210516;59;1845;-18
2023/12/30 05:32:10;;;;;;;;;;;;;;;;;;2208272;59;2209;-18
2023/12/30 05:34:40;;;;;;;;;;;;;;;;;;2203218;59;2225;-20
2023/12/30 05:37:10;;;;;;;;;;;;;;;;;;2208571;59;1878;-20
2023/12/30 05:39:40;;;;;;;;;;;;;;;;;;2208268;67;2089;-18
2023/12/30 05:42:11;;;;;;;;;;;;;;;;;;2207960;67;2431;-18
2023/12/30 05:44:41;;;;;;;;;;;;;;;;;;2206030;67;4056;-20
2023/12/30 05:47:12;;;;;;;;;;;;;;;;;;2211128;66;1975;-20
2023/12/30 05:49:57;;;;;;;;;;;;;;;;;;2208854;67;2445;-19
2023/12/30 05:52:28;;;;;;;;;;;;;;;;;;2208033;59;2197;-21
2023/12/30 05:54:58;;;;;;;;;;;;;;;;;;2206908;59;1839;-19
2023/12/30 05:57:29;;;;;;;;;;;;;;;;;;2208659;59;1888;-19
2023/12/30 05:59:59;;;;;;;;;;;;;;;;;;2204345;67;2353;-19
2023/12/30 06:02:30;;;;;;;;;;;;;;;;;;2207948;59;2372;-19
2023/12/30 06:05:00;;;;;;;;;;;;;;;;;;2206828;67;1810;-19
2023/12/30 06:07:30;;;;;;;;;;;;;;;;;;2207997;59;1843;-19
2023/12/30 06:10:01;;;;;;;;;;;;;;;;;;2208618;59;2525;-19
2023/12/30 06:12:31;;;;;;;;;;;;;;;;;;2208018;59;1989;-19
2023/12/30 06:15:01;;;;;;;;;;;;;;;;;;2207030;59;1827;-19
2023/12/30 06:17:32;;;;;;;;;;;;;;;;;;2206897;59;1809;-19
2023/12/30 06:20:04;;;;;;;;;;;;;;;;;;2206736;67;1815;-20
2023/12/30 06:22:34;;;;;;;;;;;;;;;;;;2207590;67;1870;-19
2023/12/30 06:25:05;;;;;;;;;;;;;;;;;;2207834;59;1839;-19
2023/12/30 06:27:35;;;;;;;;;;;;;;;;;;2208008;59;2685;-19
2023/12/30 06:30:06;;;;;;;;;;;;;;;;;;2210364;59;1915;-19
2023/12/30 06:33:13;;;;;;;;;;;;;;;;;;2209206;59;2170;-20
2023/12/30 06:35:44;;;;;;;;;;;;;;;;;;2205184;59;1901;-20
2023/12/30 06:38:14;;;;;;;;;;;;;;;;;;2207896;67;1684;-19
2023/12/30 06:40:47;;;;;;;;;;;;;;;;;;2205781;67;2070;-20
2023/12/30 06:43:18;;;;;;;;;;;;;;;;;;2203412;67;1844;-19
2023/12/30 06:45:48;;;;;;;;;;;;;;;;;;2205848;67;1835;-19
2023/12/30 06:48:20;;;;;;;;;;;;;;;;;;2206440;67;2266;-20
2023/12/30 06:50:50;;;;;;;;;;;;;;;;;;2206545;67;2338;-19
2023/12/30 06:53:21;;;;;;;;;;;;;;;;;;2207762;59;1964;-20
2023/12/30 06:55:51;;;;;;;;;;;;;;;;;;2209704;67;1837;-20
2023/12/30 06:58:21;;;;;;;;;;;;;;;;;;2206831;67;1884;-20
2023/12/30 07:00:51;;;;;;;;;;;;;;;;;;2207130;67;1823;-20
2023/12/30 07:03:22;;;;;;;;;;;;;;;;;;2206091;67;2275;-20
2023/12/30 07:05:52;;;;;;;;;;;;;;;;;;2206683;67;2068;-20
2023/12/30 07:08:29;;;;;;;;;;;;;;;;;;2208514;59;1889;-19
2023/12/30 07:10:59;;;;;;;;;;;;;;;;;;2206328;59;1828;-20
2023/12/30 07:13:29;;;;;;;;;;;;;;;;;;2208442;59;1944;-20
2023/12/30 07:16:00;;;;;;;;;;;;;;;;;;2207314;59;2819;-19
2023/12/30 07:18:31;;;;;;;;;;;;;;;;;;2209522;59;1828;-20
2023/12/30 07:21:01;;;;;;;;;;;;;;;;;;2206387;59;2300;-20
2023/12/30 07:23:31;;;;;;;;;;;;;;;;;;2212004;59;2490;-20
2023/12/30 07:26:02;;;;;;;;;;;;;;;;;;2207306;59;2328;-20
2023/12/30 07:28:50;;;;;;;;;;;;;;;;;;2207808;59;1898;-18
2023/12/30 07:31:20;;;;;;;;;;;;;;;;;;2206519;59;2551;-18
2023/12/30 07:33:51;;;;;;;;;;;;;;;;;;2211032;59;2116;-17
2023/12/30 07:36:21;;;;;;;;;;;;;;;;;;2210805;53;2436;-22
2023/12/30 07:38:51;;;;;;;;;;;;;;;;;;2212407;58;2639;-23
2023/12/30 07:41:59;;;;;;;;;;;;;;;;;;2211129;58;2142;-23
2023/12/30 07:44:33;;;;;;;;;;;;;;;;;;2213818;58;2100;-23
2023/12/30 07:47:06;;;;;;;;;;;;;;;;;;2214727;58;1995;-23
2023/12/30 07:49:37;;;;;;;;;;;;;;;;;;2214874;58;2063;-22
2023/12/30 07:52:07;;;;;;;;;;;;;;;;;;2213756;58;2794;-23
2023/12/30 07:54:38;;;;;;;;;;;;;;;;;;2214651;66;1961;-23
2023/12/30 07:57:08;;;;;;;;;;;;;;;;;;2213578;58;1868;-22
2023/12/30 07:59:40;;;;;;;;;;;;;;;;;;2215602;58;1925;-23
2023/12/30 08:02:10;;;;;;;;;;;;;;;;;;2215185;58;2509;-22
2023/12/30 08:04:44;;;;;;;;;;;;;;;;;;2216265;58;2799;-22
2023/12/30 08:07:14;;;;;;;;;;;;;;;;;;2214719;58;2292;-23
2023/12/30 08:09:44;;;;;;;;;;;;;;;;;;2214047;66;2119;-23
2023/12/30 08:12:15;;;;;;;;;;;;;;;;;;2213158;66;2009;-23
2023/12/30 08:14:45;;;;;;;;;;;;;;;;;;2216666;58;1888;-23
2023/12/30 08:17:16;;;;;;;;;;;;;;;;;;2213110;58;1876;-23
2023/12/30 08:19:46;;;;;;;;;;;;;;;;;;2212275;66;2300;-23
2023/12/30 08:22:18;;;;;;;;;;;;;;;;;;2212571;58;1891;-23
2023/12/30 08:24:50;;;;;;;;;;;;;;;;;;2211052;58;2282;-23
2023/12/30 08:27:21;;;;;;;;;;;;;;;;;;2213541;58;2620;-28
2023/12/30 08:29:51;;;;;;;;;;;;;;;;;;2211381;58;2108;-23
2023/12/30 08:32:21;;;;;;;;;;;;;;;;;;2215709;58;2207;-23
2023/12/30 08:34:54;;;;;;;;;;;;;;;;;;2213621;58;1948;-23
2023/12/30 08:37:24;;;;;;;;;;;;;;;;;;2212544;58;2131;-23
2023/12/30 08:39:54;;;;;;;;;;;;;;;;;;2212362;58;2401;-23
2023/12/30 08:42:25;;;;;;;;;;;;;;;;;;2212599;58;2002;-22
2023/12/30 08:44:55;;;;;;;;;;;;;;;;;;2212773;58;2826;-22
2023/12/30 08:47:25;;;;;;;;;;;;;;;;;;2213155;58;2033;-22
2023/12/30 08:50:27;;;;;;;;;;;;;;;;;;2214784;58;2200;-23
2023/12/30 08:52:57;;;;;;;;;;;;;;;;;;2211868;58;2237;-22
2023/12/30 08:55:27;;;;;;;;;;;;;;;;;;2210694;58;2522;-22
2023/12/30 08:57:58;;;;;;;;;;;;;;;;;;2212860;58;1453;-22
2023/12/30 09:00:28;;;;;;;;;;;;;;;;;;2211825;58;2569;-22
2023/12/30 09:02:58;;;;;;;;;;;;;;;;;;2212317;58;2066;-22
2023/12/30 09:05:28;;;;;;;;;;;;;;;;;;2212124;58;2050;-22
2023/12/30 09:07:59;;;;;;;;;;;;;;;;;;2211689;58;2502;-22
2023/12/30 09:10:30;;;;;;;;;;;;;;;;;;2212708;58;2080;-22
2023/12/30 09:13:00;;;;;;;;;;;;;;;;;;2212211;58;1954;-22
2023/12/30 09:15:30;;;;;;;;;;;;;;;;;;2211722;58;2159;-22
2023/12/30 09:18:01;;;;;;;;;;;;;;;;;;2212853;58;1661;-22
2023/12/30 09:20:31;;;;;;;;;;;;;;;;;;2212157;66;2034;-22
2023/12/30 09:23:01;;;;;;;;;;;;;;;;;;2211955;66;1637;-22
2023/12/30 09:25:32;;;;;;;;;;;;;;;;;;2211461;58;2339;-22
2023/12/30 09:28:02;;;;;;;;;;;;;;;;;;2210285;58;2067;-23
2023/12/30 09:30:32;;;;;;;;;;;;;;;;;;2213769;58;1410;-22
2023/12/30 09:33:02;;;;;;;;;;;;;;;;;;2211657;58;2396;-22
2023/12/30 09:35:33;;;;;;;;;;;;;;;;;;2213697;58;1489;-22
2023/12/30 09:38:03;;;;;;;;;;;;;;;;;;2209998;59;3032;-22
2023/12/30 09:40:33;;;;;;;;;;;;;;;;;;2211015;59;2342;-23
2023/12/30 09:43:04;;;;;;;;;;;;;;;;;;2210922;58;2285;-22
2023/12/30 09:45:39;;;;;;;;;;;;;;;;;;2212055;58;2094;-22
2023/12/30 09:48:10;;;;;;;;;;;;;;;;;;2212418;66;2546;-23
2023/12/30 09:50:40;;;;;;;;;;;;;;;;;;2208590;66;1917;-23
2023/12/30 09:53:10;;;;;;;;;;;;;;;;;;2212615;58;2374;-22
2023/12/30 09:55:41;;;;;;;;;;;;;;;;;;2211579;58;2519;-22
2023/12/30 09:58:12;;;;;;;;;;;;;;;;;;2209926;58;2019;-23
2023/12/30 10:00:42;;;;;;;;;;;;;;;;;;2211516;58;2609;-23
2023/12/30 10:03:13;;;;;;;;;;;;;;;;;;2212422;58;2180;-23
2023/12/30 10:05:43;;;;;;;;;;;;;;;;;;2215536;58;2671;-23
2023/12/30 10:08:14;;;;;;;;;;;;;;;;;;2212428;58;1740;-23
2023/12/30 10:10:46;;;;;;;;;;;;;;;;;;2212891;58;2098;-23
2023/12/30 10:13:25;;;;;;;;;;;;;;;;;;2211661;58;2028;-23
2023/12/30 10:15:58;;;;;;;;;;;;;;;;;;2212089;58;2025;-23
2023/12/30 10:18:28;;;;;;;;;;;;;;;;;;2212212;66;1799;-23
2023/12/30 10:20:59;;;;;;;;;;;;;;;;;;2213589;59;2272;-23
2023/12/30 10:23:30;;;;;;;;;;;;;;;;;;2212804;59;2521;-23
2023/12/30 10:26:01;;;;;;;;;;;;;;;;;;2213349;58;2588;-23
2023/12/30 10:28:31;;;;;;;;;;;;;;;;;;2212977;58;1674;-23
2023/12/30 10:31:03;;;;;;;;;;;;;;;;;;2212504;58;2245;-23
2023/12/30 10:33:34;;;;;;;;;;;;;;;;;;2215375;58;2122;-23
2023/12/30 10:36:06;;;;;;;;;;;;;;;;;;2213190;58;2390;-23
2023/12/30 10:38:37;;;;;;;;;;;;;;;;;;2213095;58;2153;-23
2023/12/30 10:41:07;;;;;;;;;;;;;;;;;;2211889;59;2387;-23
2023/12/30 10:43:38;;;;;;;;;;;;;;;;;;2214114;58;1961;-23
2023/12/30 10:46:12;;;;;;;;;;;;;;;;;;2213182;66;1849;-23
2023/12/30 10:48:53;;;;;;;;;;;;;;;;;;2213152;61;1761;-23
2023/12/30 10:51:24;;;;;;;;;;;;;;;;;;2213398;58;2274;-23
2023/12/30 10:53:58;;;;;;;;;;;;;;;;;;2212721;66;1990;-23
2023/12/30 10:56:29;;;;;;;;;;;;;;;;;;2213168;66;2108;-23
2023/12/30 10:59:03;;;;;;;;;;;;;;;;;;2212957;66;2741;-23
2023/12/30 11:01:35;;;;;;;;;;;;;;;;;;2211914;58;2903;-23
2023/12/30 11:04:11;;;;;;;;;;;;;;;;;;2213895;58;2454;-23
2023/12/30 11:06:56;;;;;;;;;;;;;;;;;;2211859;58;1772;-24
2023/12/30 11:09:29;;;;;;;;;;;;;;;;;;2212875;59;2644;-23
2023/12/30 11:12:00;;;;;;;;;;;;;;;;;;2213332;58;1990;-24
2023/12/30 11:14:34;;;;;;;;;;;;;;;;;;2212917;58;1860;-24
2023/12/30 11:17:05;;;;;;;;;;;;;;;;;;2212183;66;2350;-24
2023/12/30 11:19:36;;;;;;;;;;;;;;;;;;2212817;66;1811;-24
2023/12/30 11:22:07;;;;;;;;;;;;;;;;;;2213148;66;2371;-23
2023/12/30 11:24:38;;;;;;;;;;;;;;;;;;2213042;66;2536;-23
2023/12/30 11:27:09;;;;;;;;;;;;;;;;;;2212380;66;1871;-23
2023/12/30 11:29:40;;;;;;;;;;;;;;;;;;2213249;58;2340;-23
2023/12/30 11:32:16;;;;;;;;;;;;;;;;;;2211242;58;2183;-23
2023/12/30 11:34:48;;;;;;;;;;;;;;;;;;2213480;66;2522;-23
2023/12/30 11:37:19;;;;;;;;;;;;;;;;;;2212665;59;1901;-23
2023/12/30 11:39:50;;;;;;;;;;;;;;;;;;2213524;66;1863;-24
2023/12/30 11:42:20;;;;;;;;;;;;;;;;;;2214196;65;2150;-24
2023/12/30 11:44:50;;;;;;;;;;;;;;;;;;2213507;66;1800;-23
2023/12/30 11:47:21;;;;;;;;;;;;;;;;;;2212372;58;1984;-23
2023/12/30 11:50:00;;;;;;;;;;;;;;;;;;2213213;58;2752;-23
2023/12/30 11:52:30;;;;;;;;;;;;;;;;;;2212615;58;1993;-23
2023/12/30 11:55:04;;;;;;;;;;;;;;;;;;2213504;59;2110;-24
2023/12/30 11:57:34;;;;;;;;;;;;;;;;;;2213817;66;2212;-23
2023/12/30 12:00:07;;;;;;;;;;;;;;;;;;2212922;66;2287;-23
2023/12/30 12:02:37;;;;;;;;;;;;;;;;;;2212757;58;2355;-23
2023/12/30 12:05:08;;;;;;;;;;;;;;;;;;2212570;58;2104;-23
2023/12/30 12:07:38;;;;;;;;;;;;;;;;;;2213742;58;2030;-23
2023/12/30 12:10:08;;;;;;;;;;;;;;;;;;2211778;58;2532;-23
2023/12/30 12:12:39;;;;;;;;;;;;;;;;;;2213830;58;3222;-23
2023/12/30 12:15:09;;;;;;;;;;;;;;;;;;2212375;58;2028;-23
2023/12/30 12:17:40;;;;;;;;;;;;;;;;;;2213044;58;1953;-23
2023/12/30 12:20:10;;;;;;;;;;;;;;;;;;2212835;66;3347;-23
2023/12/30 12:22:41;;;;;;;;;;;;;;;;;;2209984;59;2330;-23
2023/12/30 12:25:11;;;;;;;;;;;;;;;;;;2211549;58;2295;-23
2023/12/30 12:27:42;;;;;;;;;;;;;;;;;;2213452;58;1904;-23
2023/12/30 12:30:12;;;;;;;;;;;;;;;;;;2212907;58;2366;-23
2023/12/30 12:32:42;;;;;;;;;;;;;;;;;;2213154;58;2432;-23
2023/12/30 12:35:20;;;;;;;;;;;;;;;;;;2212578;59;2318;-23
2023/12/30 12:37:51;;;;;;;;;;;;;;;;;;2213303;58;2238;-23
2023/12/30 12:40:21;;;;;;;;;;;;;;;;;;2211880;66;2519;-23
2023/12/30 12:43:07;;;;;;;;;;;;;;;;;;2213282;59;1945;-23
2023/12/30 12:45:37;;;;;;;;;;;;;;;;;;2212629;58;2043;-23
2023/12/30 12:48:07;;;;;;;;;;;;;;;;;;2210746;58;1796;-23
2023/12/30 12:50:41;;;;;;;;;;;;;;;;;;2212967;58;2172;-23
2023/12/30 12:53:11;;;;;;;;;;;;;;;;;;2211722;66;2790;-23
2023/12/30 12:55:41;;;;;;;;;;;;;;;;;;2214567;58;2523;-23
2023/12/30 12:58:12;;;;;;;;;;;;;;;;;;2212038;66;2034;-23
2023/12/30 13:00:42;;;;;;;;;;;;;;;;;;2212681;58;1982;-23
2023/12/30 13:03:12;;;;;;;;;;;;;;;;;;2210904;58;2098;-23
2023/12/30 13:05:43;;;;;;;;;;;;;;;;;;2213215;66;2026;-23
2023/12/30 13:08:13;;;;;;;;;;;;;;;;;;2213618;58;2684;-23
2023/12/30 13:10:48;;;;;;;;;;;;;;;;;;2212872;66;2173;-24
2023/12/30 13:13:19;;;;;;;;;;;;;;;;;;2213202;58;1937;-23
2023/12/30 13:15:49;;;;;;;;;;;;;;;;;;2214937;58;2575;-23
2023/12/30 13:18:20;;;;;;;;;;;;;;;;;;2212598;66;1993;-23
2023/12/30 13:20:50;;;;;;;;;;;;;;;;;;2210476;59;3697;-23
2023/12/30 13:23:21;;;;;;;;;;;;;;;;;;2214164;66;1725;-23
2023/12/30 13:25:51;;;;;;;;;;;;;;;;;;2216523;66;2347;-23
2023/12/30 13:28:22;;;;;;;;;;;;;;;;;;2213685;66;2533;-23
2023/12/30 13:30:52;;;;;;;;;;;;;;;;;;2214004;58;1882;-23
2023/12/30 13:33:23;;;;;;;;;;;;;;;;;;2213988;59;2400;-23
2023/12/30 13:35:53;;;;;;;;;;;;;;;;;;2213383;66;2428;-23
2023/12/30 13:38:24;;;;;;;;;;;;;;;;;;2213871;58;2320;-24
2023/12/30 13:40:58;;;;;;;;;;;;;;;;;;2213158;66;2354;-24
2023/12/30 13:43:28;;;;;;;;;;;;;;;;;;2212418;66;1859;-24
2023/12/30 13:51:55;;;;;;;;;;;;;;;;;;2209010;66;2383;-23
2023/12/30 13:54:26;;;;;;;;;;;;;;;;;;2213677;66;2094;-23
2023/12/30 13:57:11;;;;;;;;;;;;;;;;;;2214075;66;2066;-23
2023/12/30 13:59:45;;;;;;;;;;;;;;;;;;2213356;66;1693;-23
2023/12/30 14:02:17;;;;;;;;;;;;;;;;;;2213353;58;2598;-23
2023/12/30 14:04:55;;;;;;;;;;;;;;;;;;2212965;66;2355;-23
2023/12/30 14:07:29;;;;;;;;;;;;;;;;;;2214701;58;2401;-23
2023/12/30 14:10:09;;;;;;;;;;;;;;;;;;2213765;66;1892;-24
2023/12/30 14:12:41;;;;;;;;;;;;;;;;;;2212996;58;2056;-23
2023/12/30 14:15:36;;;;;;;;;;;;;;;;;;2213721;58;2036;-23
2023/12/30 14:18:07;;;;;;;;;;;;;;;;;;2215539;58;2451;-23
2023/12/30 14:20:37;;;;;;;;;;;;;;;;;;2212858;58;2961;-23
2023/12/30 14:23:07;;;;;;;;;;;;;;;;;;2212842;58;2579;-23
2023/12/30 14:25:38;;;;;;;;;;;;;;;;;;2213401;58;1790;-24
2023/12/30 14:28:09;;;;;;;;;;;;;;;;;;2213162;58;2011;-23
2023/12/30 14:30:39;;;;;;;;;;;;;;;;;;2212649;58;1617;-24
2023/12/30 14:33:10;;;;;;;;;;;;;;;;;;2212894;58;2485;-24
2023/12/30 14:35:41;;;;;;;;;;;;;;;;;;2214242;58;1786;-23
2023/12/30 14:38:11;;;;;;;;;;;;;;;;;;2213287;58;1960;-23
2023/12/30 14:40:42;;;;;;;;;;;;;;;;;;2213031;66;1806;-23
2023/12/30 14:43:13;;;;;;;;;;;;;;;;;;2213277;58;2123;-23
2023/12/30 14:45:43;;;;;;;;;;;;;;;;;;2214897;58;1672;-23
2023/12/30 14:48:13;;;;;;;;;;;;;;;;;;2211498;58;2115;-23
2023/12/30 14:50:53;;;;;;;;;;;;;;;;;;2213731;66;1787;-23
2023/12/30 14:53:23;;;;;;;;;;;;;;;;;;2216213;59;1933;-23
2023/12/30 14:55:53;;;;;;;;;;;;;;;;;;2213306;58;2081;-23
2023/12/30 14:58:23;;;;;;;;;;;;;;;;;;2213463;58;1953;-23
2023/12/30 15:00:54;;;;;;;;;;;;;;;;;;2212803;58;1824;-23
2023/12/30 15:03:24;;;;;;;;;;;;;;;;;;2213940;58;2235;-23
2023/12/30 15:05:54;;;;;;;;;;;;;;;;;;2214625;58;2348;-23
2023/12/30 15:08:25;;;;;;;;;;;;;;;;;;2213370;58;2117;-23
2023/12/30 15:10:55;;;;;;;;;;;;;;;;;;2212766;58;2382;-23
2023/12/30 15:13:25;;;;;;;;;;;;;;;;;;2211925;58;2016;-23
2023/12/30 15:19:09;;;;;;;;;;;;;;;;;;2213895;58;1953;-23
2023/12/30 15:21:39;;;;;;;;;;;;;;;;;;2212291;58;1581;-23
2023/12/30 15:24:12;;;;;;;;;;;;;;;;;;2213272;58;2166;-23
2023/12/30 15:26:42;;;;;;;;;;;;;;;;;;2212327;58;1900;-23
2023/12/30 15:29:12;;;;;;;;;;;;;;;;;;2213164;58;1716;-23
2023/12/30 15:31:44;;;;;;;;;;;;;;;;;;2214863;58;2010;-23
2023/12/30 15:34:14;;;;;;;;;;;;;;;;;;2214470;58;2396;-23
2023/12/30 15:36:45;;;;;;;;;;;;;;;;;;2213561;58;2001;-23
2023/12/30 15:39:15;;;;;;;;;;;;;;;;;;2214008;59;1525;-23
2023/12/30 15:41:46;;;;;;;;;;;;;;;;;;2213376;59;1347;-23
2023/12/30 15:44:16;;;;;;;;;;;;;;;;;;2214145;58;2317;-23
2023/12/30 15:46:46;;;;;;;;;;;;;;;;;;2215190;58;1966;-23
2023/12/30 15:49:16;;;;;;;;;;;;;;;;;;2209852;59;1724;-23
2023/12/30 15:51:47;;;;;;;;;;;;;;;;;;2212314;58;1440;-23
2023/12/30 15:54:17;;;;;;;;;;;;;;;;;;2210886;58;1952;-22
2023/12/30 15:56:50;;;;;;;;;;;;;;;;;;2212467;66;1561;-23
2023/12/30 15:59:20;;;;;;;;;;;;;;;;;;2214513;58;1793;-23
2023/12/30 16:01:51;;;;;;;;;;;;;;;;;;2212639;59;2143;-23
2023/12/30 16:04:21;;;;;;;;;;;;;;;;;;2212360;58;2398;-23
2023/12/30 16:06:51;;;;;;;;;;;;;;;;;;2213132;59;1512;-23
2023/12/30 16:09:22;;;;;;;;;;;;;;;;;;2211972;66;2109;-23
2023/12/30 16:11:56;;;;;;;;;;;;;;;;;;2214851;58;2524;-23
2023/12/30 16:14:37;;;;;;;;;;;;;;;;;;2212256;58;1852;-23
2023/12/30 16:17:07;;;;;;;;;;;;;;;;;;2212995;58;1778;-22
2023/12/30 16:19:38;;;;;;;;;;;;;;;;;;2214782;66;1505;-23
2023/12/30 16:22:08;;;;;;;;;;;;;;;;;;2210150;59;3662;-23
2023/12/30 16:24:38;;;;;;;;;;;;;;;;;;2211173;58;2271;-22
2023/12/30 16:27:08;;;;;;;;;;;;;;;;;;2208238;59;2004;-23
2023/12/30 16:29:42;;;;;;;;;;;;;;;;;;2214526;58;2022;-23
2023/12/30 16:32:12;;;;;;;;;;;;;;;;;;2212609;58;2847;-23
2023/12/30 16:34:43;;;;;;;;;;;;;;;;;;2212789;58;1414;-23
2023/12/30 16:37:13;;;;;;;;;;;;;;;;;;2212585;59;1643;-22
2023/12/30 16:39:43;;;;;;;;;;;;;;;;;;2212148;58;1815;-23
2023/12/30 16:42:14;;;;;;;;;;;;;;;;;;2213875;58;2263;-22
2023/12/30 16:44:44;;;;;;;;;;;;;;;;;;2214588;58;2805;-22
2023/12/30 16:47:14;;;;;;;;;;;;;;;;;;2214747;58;2246;-22
2023/12/30 16:49:45;;;;;;;;;;;;;;;;;;2213394;58;1482;-22
2023/12/30 16:52:16;;;;;;;;;;;;;;;;;;2215538;58;2347;-22
2023/12/30 16:54:46;;;;;;;;;;;;;;;;;;2212990;58;2036;-23
2023/12/30 16:57:18;;;;;;;;;;;;;;;;;;2213575;66;1500;-23
2023/12/30 16:59:50;;;;;;;;;;;;;;;;;;2214787;58;3773;-22
2023/12/30 17:02:21;;;;;;;;;;;;;;;;;;2212211;58;2406;-23
2023/12/30 17:04:52;;;;;;;;;;;;;;;;;;2212568;58;2277;-23
2023/12/30 17:07:24;;;;;;;;;;;;;;;;;;2214635;58;2339;-23
2023/12/30 17:09:55;;;;;;;;;;;;;;;;;;2213826;58;2151;-22
2023/12/30 17:12:26;;;;;;;;;;;;;;;;;;2213073;58;2056;-23
2023/12/30 17:14:56;;;;;;;;;;;;;;;;;;2212874;58;2216;-22
2023/12/30 17:17:27;;;;;;;;;;;;;;;;;;2213351;58;2041;-23
2023/12/30 17:19:57;;;;;;;;;;;;;;;;;;2213653;58;1389;-22
2023/12/30 17:22:27;;;;;;;;;;;;;;;;;;2212670;58;3093;-23
2023/12/30 17:24:58;;;;;;;;;;;;;;;;;;2213049;58;1720;-22
2023/12/30 17:27:37;;;;;;;;;;;;;;;;;;2211431;58;2028;-22
2023/12/30 17:30:07;;;;;;;;;;;;;;;;;;2213763;58;2287;-22
2023/12/30 17:32:38;;;;;;;;;;;;;;;;;;2212136;58;2281;-22
2023/12/30 17:35:08;;;;;;;;;;;;;;;;;;2213112;58;1592;-22
2023/12/30 17:37:38;;;;;;;;;;;;;;;;;;2213782;58;2053;-22
2023/12/30 17:40:11;;;;;;;;;;;;;;;;;;2213417;58;1667;-22
2023/12/30 17:42:41;;;;;;;;;;;;;;;;;;2213680;58;1692;-22
2023/12/30 17:45:11;;;;;;;;;;;;;;;;;;2213282;66;2633;-22